Hudson, New York
Current Conditions -  °F | °C
As of 9:54 AM on Friday 28 Nov 2014 (Local Time) from KPSF Reporting Station
Clear Clear  
Wind Chill: 13°   Ceiling: Unl
Heat Index: 25°   Visibility: 10mi
Dew Point: 18°   Wind: 14mph
Humidity: 75%   Direction: 300°WNW
Pressure: 30.06"   Gusts: 23mph
Location:  42.25°N, 73.79°W
Report Text: KPSF 281454Z AUTO 30012G20KT 10SM CLR M04/M08 A3006 RMK AO2 SLP197 T10391078 $
Loading
Personal Weather Stations






























Interactive Weather Map New forecast layout! Learn more

10-Day Weather Forecast

Advertisements
Track Severe Weather on mobile